sensor_id;sensor_type;location;lat;lon;timestamp;P1;durP1;ratioP1;P2;durP2;ratioP2
10517;SDS011;5307;42.548;22.968;2022-08-24T00:00:54;15.77;;;12.82;;
10517;SDS011;5307;42.548;22.968;2022-08-24T00:03:21;15.60;;;11.93;;
10517;SDS011;5307;42.548;22.968;2022-08-24T00:05:48;16.52;;;12.27;;
10517;SDS011;5307;42.548;22.968;2022-08-24T00:08:15;17.63;;;12.82;;
10517;SDS011;5307;42.548;22.968;2022-08-24T00:10:43;15.70;;;12.07;;
10517;SDS011;5307;42.548;22.968;2022-08-24T00:13:10;15.50;;;12.30;;
10517;SDS011;5307;42.548;22.968;2022-08-24T00:15:38;18.88;;;12.63;;
10517;SDS011;5307;42.548;22.968;2022-08-24T00:18:05;15.05;;;12.52;;
10517;SDS011;5307;42.548;22.968;2022-08-24T00:20:32;16.13;;;12.32;;
10517;SDS011;5307;42.548;22.968;2022-08-24T00:22:59;14.98;;;12.55;;
10517;SDS011;5307;42.548;22.968;2022-08-24T00:25:26;16.92;;;11.95;;
10517;SDS011;5307;42.548;22.968;2022-08-24T00:27:53;18.45;;;13.43;;
10517;SDS011;5307;42.548;22.968;2022-08-24T00:30:20;16.80;;;12.95;;
10517;SDS011;5307;42.548;22.968;2022-08-24T00:32:49;18.67;;;13.43;;
10517;SDS011;5307;42.548;22.968;2022-08-24T00:35:18;15.57;;;12.48;;
10517;SDS011;5307;42.548;22.968;2022-08-24T00:37:46;19.73;;;12.15;;
10517;SDS011;5307;42.548;22.968;2022-08-24T00:40:15;18.05;;;12.45;;
10517;SDS011;5307;42.548;22.968;2022-08-24T00:42:45;14.25;;;11.57;;
10517;SDS011;5307;42.548;22.968;2022-08-24T00:45:13;15.45;;;13.15;;
10517;SDS011;5307;42.548;22.968;2022-08-24T00:47:42;15.32;;;12.73;;
10517;SDS011;5307;42.548;22.968;2022-08-24T00:50:17;18.88;;;12.43;;
10517;SDS011;5307;42.548;22.968;2022-08-24T00:52:47;16.92;;;12.90;;
10517;SDS011;5307;42.548;22.968;2022-08-24T00:55:17;16.10;;;13.23;;
10517;SDS011;5307;42.548;22.968;2022-08-24T00:57:51;20.45;;;12.80;;
10517;SDS011;5307;42.548;22.968;2022-08-24T01:00:22;16.10;;;12.68;;
10517;SDS011;5307;42.548;22.968;2022-08-24T01:02:52;15.95;;;13.30;;
10517;SDS011;5307;42.548;22.968;2022-08-24T01:05:24;16.08;;;12.35;;
10517;SDS011;5307;42.548;22.968;2022-08-24T01:07:51;15.68;;;12.40;;
10517;SDS011;5307;42.548;22.968;2022-08-24T01:10:18;13.93;;;12.07;;
10517;SDS011;5307;42.548;22.968;2022-08-24T01:12:49;15.85;;;12.88;;
10517;SDS011;5307;42.548;22.968;2022-08-24T01:15:20;14.52;;;12.65;;
10517;SDS011;5307;42.548;22.968;2022-08-24T01:17:47;14.82;;;12.38;;
10517;SDS011;5307;42.548;22.968;2022-08-24T01:20:33;15.45;;;11.45;;
10517;SDS011;5307;42.548;22.968;2022-08-24T01:23:02;15.55;;;11.50;;
10517;SDS011;5307;42.548;22.968;2022-08-24T01:25:36;13.68;;;11.82;;
10517;SDS011;5307;42.548;22.968;2022-08-24T01:28:07;13.85;;;11.55;;
10517;SDS011;5307;42.548;22.968;2022-08-24T01:30:39;14.55;;;11.65;;
10517;SDS011;5307;42.548;22.968;2022-08-24T01:33:08;20.17;;;12.57;;
10517;SDS011;5307;42.548;22.968;2022-08-24T01:35:36;16.77;;;12.02;;
10517;SDS011;5307;42.548;22.968;2022-08-24T01:38:05;12.88;;;10.85;;
10517;SDS011;5307;42.548;22.968;2022-08-24T01:40:34;11.85;;;10.20;;
10517;SDS011;5307;42.548;22.968;2022-08-24T01:43:05;13.65;;;10.68;;
10517;SDS011;5307;42.548;22.968;2022-08-24T01:45:33;14.77;;;11.18;;
10517;SDS011;5307;42.548;22.968;2022-08-24T01:48:00;12.52;;;10.38;;
10517;SDS011;5307;42.548;22.968;2022-08-24T01:50:27;15.27;;;10.88;;
10517;SDS011;5307;42.548;22.968;2022-08-24T01:52:55;12.43;;;10.50;;
10517;SDS011;5307;42.548;22.968;2022-08-24T01:55:26;11.10;;;9.73;;
10517;SDS011;5307;42.548;22.968;2022-08-24T01:57:55;12.48;;;10.05;;
10517;SDS011;5307;42.548;22.968;2022-08-24T02:00:23;13.90;;;9.55;;
10517;SDS011;5307;42.548;22.968;2022-08-24T02:02:50;12.00;;;10.15;;
10517;SDS011;5307;42.548;22.968;2022-08-24T02:05:17;12.35;;;10.60;;
10517;SDS011;5307;42.548;22.968;2022-08-24T02:07:44;12.10;;;10.15;;
10517;SDS011;5307;42.548;22.968;2022-08-24T02:10:12;10.95;;;9.70;;
10517;SDS011;5307;42.548;22.968;2022-08-24T02:12:42;12.45;;;10.38;;
10517;SDS011;5307;42.548;22.968;2022-08-24T02:15:23;11.20;;;9.30;;
10517;SDS011;5307;42.548;22.968;2022-08-24T02:17:51;15.05;;;10.93;;
10517;SDS011;5307;42.548;22.968;2022-08-24T02:20:18;14.02;;;10.27;;
10517;SDS011;5307;42.548;22.968;2022-08-24T02:22:45;11.90;;;10.27;;
10517;SDS011;5307;42.548;22.968;2022-08-24T02:25:12;10.80;;;9.57;;
10517;SDS011;5307;42.548;22.968;2022-08-24T02:27:39;12.65;;;9.50;;
10517;SDS011;5307;42.548;22.968;2022-08-24T02:30:07;12.88;;;9.55;;
10517;SDS011;5307;42.548;22.968;2022-08-24T02:32:36;11.32;;;9.43;;
10517;SDS011;5307;42.548;22.968;2022-08-24T02:35:03;14.95;;;9.88;;
10517;SDS011;5307;42.548;22.968;2022-08-24T02:37:30;11.82;;;9.10;;
10517;SDS011;5307;42.548;22.968;2022-08-24T02:39:57;11.65;;;9.77;;
10517;SDS011;5307;42.548;22.968;2022-08-24T02:42:24;13.10;;;9.60;;
10517;SDS011;5307;42.548;22.968;2022-08-24T02:44:51;11.23;;;9.43;;
10517;SDS011;5307;42.548;22.968;2022-08-24T02:47:19;18.15;;;9.40;;
10517;SDS011;5307;42.548;22.968;2022-08-24T02:49:47;11.68;;;8.90;;
10517;SDS011;5307;42.548;22.968;2022-08-24T02:52:14;9.82;;;8.32;;
10517;SDS011;5307;42.548;22.968;2022-08-24T02:54:41;10.95;;;8.52;;
10517;SDS011;5307;42.548;22.968;2022-08-24T02:57:08;12.18;;;9.48;;
10517;SDS011;5307;42.548;22.968;2022-08-24T02:59:34;13.68;;;9.18;;
10517;SDS011;5307;42.548;22.968;2022-08-24T03:02:01;11.13;;;8.90;;
10517;SDS011;5307;42.548;22.968;2022-08-24T03:04:29;10.27;;;8.48;;
10517;SDS011;5307;42.548;22.968;2022-08-24T03:06:58;10.48;;;8.98;;
10517;SDS011;5307;42.548;22.968;2022-08-24T03:09:24;13.65;;;8.75;;
10517;SDS011;5307;42.548;22.968;2022-08-24T03:11:51;11.38;;;9.32;;
10517;SDS011;5307;42.548;22.968;2022-08-24T03:14:18;10.95;;;9.77;;
10517;SDS011;5307;42.548;22.968;2022-08-24T03:16:45;12.93;;;9.27;;
10517;SDS011;5307;42.548;22.968;2022-08-24T03:19:12;8.88;;;7.32;;
10517;SDS011;5307;42.548;22.968;2022-08-24T03:21:39;10.98;;;7.65;;
10517;SDS011;5307;42.548;22.968;2022-08-24T03:24:08;11.18;;;8.18;;
10517;SDS011;5307;42.548;22.968;2022-08-24T03:26:35;12.35;;;7.60;;
10517;SDS011;5307;42.548;22.968;2022-08-24T03:29:03;13.35;;;8.80;;
10517;SDS011;5307;42.548;22.968;2022-08-24T03:31:30;15.35;;;9.82;;
10517;SDS011;5307;42.548;22.968;2022-08-24T03:33:57;10.77;;;8.82;;
10517;SDS011;5307;42.548;22.968;2022-08-24T03:36:24;12.50;;;9.15;;
10517;SDS011;5307;42.548;22.968;2022-08-24T03:38:50;11.88;;;9.25;;
10517;SDS011;5307;42.548;22.968;2022-08-24T03:41:18;9.77;;;8.27;;
10517;SDS011;5307;42.548;22.968;2022-08-24T03:43:45;12.43;;;10.75;;
10517;SDS011;5307;42.548;22.968;2022-08-24T03:46:14;11.90;;;9.32;;
10517;SDS011;5307;42.548;22.968;2022-08-24T03:48:42;11.15;;;9.30;;
10517;SDS011;5307;42.548;22.968;2022-08-24T03:51:10;11.23;;;9.40;;
10517;SDS011;5307;42.548;22.968;2022-08-24T03:53:39;13.35;;;9.55;;
10517;SDS011;5307;42.548;22.968;2022-08-24T03:56:06;11.38;;;9.13;;
10517;SDS011;5307;42.548;22.968;2022-08-24T03:58:35;16.10;;;10.38;;
10517;SDS011;5307;42.548;22.968;2022-08-24T04:01:03;13.07;;;9.60;;
10517;SDS011;5307;42.548;22.968;2022-08-24T04:03:33;15.82;;;10.05;;
10517;SDS011;5307;42.548;22.968;2022-08-24T04:06:01;13.32;;;10.55;;
10517;SDS011;5307;42.548;22.968;2022-08-24T04:08:27;12.07;;;10.38;;
10517;SDS011;5307;42.548;22.968;2022-08-24T04:10:55;14.98;;;10.35;;
10517;SDS011;5307;42.548;22.968;2022-08-24T04:13:22;16.77;;;10.02;;
10517;SDS011;5307;42.548;22.968;2022-08-24T04:15:50;14.40;;;10.43;;
10517;SDS011;5307;42.548;22.968;2022-08-24T04:18:17;16.98;;;10.07;;
10517;SDS011;5307;42.548;22.968;2022-08-24T04:20:45;13.38;;;11.10;;
10517;SDS011;5307;42.548;22.968;2022-08-24T04:23:12;15.30;;;10.73;;
10517;SDS011;5307;42.548;22.968;2022-08-24T04:25:40;18.65;;;10.88;;
10517;SDS011;5307;42.548;22.968;2022-08-24T04:28:08;20.75;;;10.52;;
10517;SDS011;5307;42.548;22.968;2022-08-24T04:30:38;13.77;;;10.27;;
10517;SDS011;5307;42.548;22.968;2022-08-24T04:33:07;11.85;;;10.32;;
10517;SDS011;5307;42.548;22.968;2022-08-24T04:35:36;13.77;;;9.52;;
10517;SDS011;5307;42.548;22.968;2022-08-24T04:38:04;11.68;;;9.85;;
10517;SDS011;5307;42.548;22.968;2022-08-24T04:40:31;15.45;;;10.10;;
10517;SDS011;5307;42.548;22.968;2022-08-24T04:42:59;14.27;;;10.32;;
10517;SDS011;5307;42.548;22.968;2022-08-24T04:45:26;14.57;;;9.23;;
10517;SDS011;5307;42.548;22.968;2022-08-24T04:47:54;14.65;;;9.35;;
10517;SDS011;5307;42.548;22.968;2022-08-24T04:50:22;12.38;;;9.55;;
10517;SDS011;5307;42.548;22.968;2022-08-24T04:52:49;12.02;;;10.15;;
10517;SDS011;5307;42.548;22.968;2022-08-24T04:55:16;13.55;;;9.70;;
10517;SDS011;5307;42.548;22.968;2022-08-24T04:57:43;11.73;;;9.75;;
10517;SDS011;5307;42.548;22.968;2022-08-24T05:00:10;11.85;;;9.80;;
10517;SDS011;5307;42.548;22.968;2022-08-24T05:02:38;16.25;;;10.45;;
10517;SDS011;5307;42.548;22.968;2022-08-24T05:05:05;13.25;;;9.52;;
10517;SDS011;5307;42.548;22.968;2022-08-24T05:07:34;11.10;;;8.90;;
10517;SDS011;5307;42.548;22.968;2022-08-24T05:10:02;12.40;;;9.65;;
10517;SDS011;5307;42.548;22.968;2022-08-24T05:12:31;13.70;;;9.13;;
10517;SDS011;5307;42.548;22.968;2022-08-24T05:14:58;12.57;;;9.40;;
10517;SDS011;5307;42.548;22.968;2022-08-24T05:17:25;12.30;;;9.23;;
10517;SDS011;5307;42.548;22.968;2022-08-24T05:19:53;12.13;;;9.23;;
10517;SDS011;5307;42.548;22.968;2022-08-24T05:22:19;10.65;;;8.30;;
10517;SDS011;5307;42.548;22.968;2022-08-24T05:24:47;10.30;;;8.82;;
10517;SDS011;5307;42.548;22.968;2022-08-24T05:27:14;14.75;;;8.80;;
10517;SDS011;5307;42.548;22.968;2022-08-24T05:29:42;10.77;;;8.32;;
10517;SDS011;5307;42.548;22.968;2022-08-24T05:32:09;15.40;;;8.80;;
10517;SDS011;5307;42.548;22.968;2022-08-24T05:34:36;11.23;;;8.70;;
10517;SDS011;5307;42.548;22.968;2022-08-24T05:37:04;10.25;;;8.40;;
10517;SDS011;5307;42.548;22.968;2022-08-24T05:39:31;14.85;;;9.05;;
10517;SDS011;5307;42.548;22.968;2022-08-24T05:42:00;10.23;;;8.27;;
10517;SDS011;5307;42.548;22.968;2022-08-24T05:44:27;10.00;;;8.50;;
10517;SDS011;5307;42.548;22.968;2022-08-24T05:46:55;15.35;;;8.52;;
10517;SDS011;5307;42.548;22.968;2022-08-24T05:49:23;13.38;;;8.05;;
10517;SDS011;5307;42.548;22.968;2022-08-24T05:51:50;9.05;;;7.88;;
10517;SDS011;5307;42.548;22.968;2022-08-24T05:54:17;10.52;;;7.82;;
10517;SDS011;5307;42.548;22.968;2022-08-24T05:56:44;12.02;;;8.00;;
10517;SDS011;5307;42.548;22.968;2022-08-24T05:59:13;8.85;;;6.80;;
10517;SDS011;5307;42.548;22.968;2022-08-24T06:01:42;8.98;;;7.20;;
10517;SDS011;5307;42.548;22.968;2022-08-24T06:04:08;10.27;;;6.68;;
10517;SDS011;5307;42.548;22.968;2022-08-24T06:06:36;8.32;;;6.53;;
10517;SDS011;5307;42.548;22.968;2022-08-24T06:09:03;8.70;;;6.60;;
10517;SDS011;5307;42.548;22.968;2022-08-24T06:11:31;10.57;;;5.90;;
10517;SDS011;5307;42.548;22.968;2022-08-24T06:14:00;7.90;;;6.38;;
10517;SDS011;5307;42.548;22.968;2022-08-24T06:16:30;8.02;;;5.43;;
10517;SDS011;5307;42.548;22.968;2022-08-24T06:19:00;7.07;;;5.57;;
10517;SDS011;5307;42.548;22.968;2022-08-24T06:21:27;9.93;;;6.38;;
10517;SDS011;5307;42.548;22.968;2022-08-24T06:23:54;6.82;;;6.15;;
10517;SDS011;5307;42.548;22.968;2022-08-24T06:26:22;8.65;;;6.00;;
10517;SDS011;5307;42.548;22.968;2022-08-24T06:29:06;7.97;;;5.78;;
10517;SDS011;5307;42.548;22.968;2022-08-24T06:31:35;7.55;;;5.88;;
10517;SDS011;5307;42.548;22.968;2022-08-24T06:34:03;7.30;;;5.30;;
10517;SDS011;5307;42.548;22.968;2022-08-24T06:36:30;6.93;;;5.45;;
10517;SDS011;5307;42.548;22.968;2022-08-24T06:39:04;6.80;;;5.72;;
10517;SDS011;5307;42.548;22.968;2022-08-24T06:41:33;11.60;;;5.80;;
10517;SDS011;5307;42.548;22.968;2022-08-24T06:44:00;5.70;;;4.97;;
10517;SDS011;5307;42.548;22.968;2022-08-24T06:46:27;9.15;;;4.95;;
10517;SDS011;5307;42.548;22.968;2022-08-24T06:48:55;8.75;;;5.93;;
10517;SDS011;5307;42.548;22.968;2022-08-24T06:51:22;5.70;;;5.07;;
10517;SDS011;5307;42.548;22.968;2022-08-24T06:53:49;6.47;;;4.97;;
10517;SDS011;5307;42.548;22.968;2022-08-24T06:56:17;7.43;;;5.70;;
10517;SDS011;5307;42.548;22.968;2022-08-24T06:58:44;6.28;;;5.03;;
10517;SDS011;5307;42.548;22.968;2022-08-24T07:01:13;5.95;;;5.00;;
10517;SDS011;5307;42.548;22.968;2022-08-24T07:03:41;10.95;;;5.13;;
10517;SDS011;5307;42.548;22.968;2022-08-24T07:06:10;5.68;;;4.00;;
10517;SDS011;5307;42.548;22.968;2022-08-24T07:08:38;8.68;;;4.70;;
10517;SDS011;5307;42.548;22.968;2022-08-24T07:11:06;6.50;;;4.75;;
10517;SDS011;5307;42.548;22.968;2022-08-24T07:13:34;5.07;;;4.28;;
10517;SDS011;5307;42.548;22.968;2022-08-24T07:16:01;5.35;;;4.28;;
10517;SDS011;5307;42.548;22.968;2022-08-24T07:18:28;4.85;;;4.40;;
10517;SDS011;5307;42.548;22.968;2022-08-24T07:20:58;6.35;;;4.78;;
10517;SDS011;5307;42.548;22.968;2022-08-24T07:23:27;7.20;;;4.32;;
10517;SDS011;5307;42.548;22.968;2022-08-24T07:25:54;6.40;;;4.65;;
10517;SDS011;5307;42.548;22.968;2022-08-24T07:28:21;5.47;;;4.22;;
10517;SDS011;5307;42.548;22.968;2022-08-24T07:30:48;7.60;;;4.25;;
10517;SDS011;5307;42.548;22.968;2022-08-24T07:33:15;4.85;;;4.05;;
10517;SDS011;5307;42.548;22.968;2022-08-24T07:35:42;6.28;;;4.32;;
10517;SDS011;5307;42.548;22.968;2022-08-24T07:38:10;6.85;;;4.07;;
10517;SDS011;5307;42.548;22.968;2022-08-24T07:40:39;6.78;;;3.88;;
10517;SDS011;5307;42.548;22.968;2022-08-24T07:43:06;10.63;;;4.50;;
10517;SDS011;5307;42.548;22.968;2022-08-24T07:45:33;4.80;;;4.10;;
10517;SDS011;5307;42.548;22.968;2022-08-24T07:47:59;5.72;;;4.43;;
10517;SDS011;5307;42.548;22.968;2022-08-24T07:50:28;5.68;;;4.65;;
10517;SDS011;5307;42.548;22.968;2022-08-24T07:52:55;4.30;;;3.90;;
10517;SDS011;5307;42.548;22.968;2022-08-24T07:55:23;6.80;;;4.68;;
10517;SDS011;5307;42.548;22.968;2022-08-24T07:57:51;5.05;;;4.45;;
10517;SDS011;5307;42.548;22.968;2022-08-24T08:00:18;8.38;;;5.20;;
10517;SDS011;5307;42.548;22.968;2022-08-24T08:02:46;6.78;;;4.32;;
10517;SDS011;5307;42.548;22.968;2022-08-24T08:05:15;5.80;;;4.07;;
10517;SDS011;5307;42.548;22.968;2022-08-24T08:07:44;6.65;;;4.60;;
10517;SDS011;5307;42.548;22.968;2022-08-24T08:10:11;6.53;;;4.03;;
10517;SDS011;5307;42.548;22.968;2022-08-24T08:12:38;8.20;;;4.38;;
10517;SDS011;5307;42.548;22.968;2022-08-24T08:15:07;6.72;;;4.07;;
10517;SDS011;5307;42.548;22.968;2022-08-24T08:17:35;8.43;;;4.60;;
10517;SDS011;5307;42.548;22.968;2022-08-24T08:20:02;4.78;;;4.20;;
10517;SDS011;5307;42.548;22.968;2022-08-24T08:22:30;8.48;;;5.13;;
10517;SDS011;5307;42.548;22.968;2022-08-24T08:25:14;9.32;;;4.65;;
10517;SDS011;5307;42.548;22.968;2022-08-24T08:27:43;10.63;;;5.10;;
10517;SDS011;5307;42.548;22.968;2022-08-24T08:30:12;6.43;;;3.83;;
10517;SDS011;5307;42.548;22.968;2022-08-24T08:32:40;7.05;;;4.80;;
10517;SDS011;5307;42.548;22.968;2022-08-24T08:35:07;7.38;;;4.85;;
10517;SDS011;5307;42.548;22.968;2022-08-24T08:37:34;4.45;;;4.05;;
10517;SDS011;5307;42.548;22.968;2022-08-24T08:40:02;4.75;;;4.35;;
10517;SDS011;5307;42.548;22.968;2022-08-24T08:42:38;5.00;;;4.50;;
10517;SDS011;5307;42.548;22.968;2022-08-24T08:45:16;7.93;;;4.15;;
10517;SDS011;5307;42.548;22.968;2022-08-24T08:51:29;9.20;;;6.43;;
10517;SDS011;5307;42.548;22.968;2022-08-24T08:54:13;11.30;;;4.78;;
10517;SDS011;5307;42.548;22.968;2022-08-24T08:57:15;6.18;;;4.80;;
10517;SDS011;5307;42.548;22.968;2022-08-24T08:59:55;10.10;;;4.90;;
10517;SDS011;5307;42.548;22.968;2022-08-24T09:03:02;4.93;;;4.43;;
10517;SDS011;5307;42.548;22.968;2022-08-24T09:08:42;5.75;;;4.60;;
10517;SDS011;5307;42.548;22.968;2022-08-24T09:11:26;5.85;;;4.70;;
10517;SDS011;5307;42.548;22.968;2022-08-24T09:14:07;6.40;;;4.55;;
10517;SDS011;5307;42.548;22.968;2022-08-24T09:16:49;9.20;;;4.47;;
10517;SDS011;5307;42.548;22.968;2022-08-24T09:19:29;5.38;;;4.88;;
10517;SDS011;5307;42.548;22.968;2022-08-24T09:22:10;4.95;;;4.47;;
10517;SDS011;5307;42.548;22.968;2022-08-24T09:27:51;5.35;;;4.35;;
10517;SDS011;5307;42.548;22.968;2022-08-24T09:30:32;6.93;;;3.97;;
10517;SDS011;5307;42.548;22.968;2022-08-24T09:33:14;6.95;;;4.20;;
10517;SDS011;5307;42.548;22.968;2022-08-24T09:36:02;9.43;;;4.38;;
10517;SDS011;5307;42.548;22.968;2022-08-24T09:38:55;6.45;;;4.07;;
10517;SDS011;5307;42.548;22.968;2022-08-24T09:41:40;7.57;;;4.53;;
10517;SDS011;5307;42.548;22.968;2022-08-24T09:44:36;6.03;;;4.13;;
10517;SDS011;5307;42.548;22.968;2022-08-24T09:47:36;6.05;;;4.07;;
10517;SDS011;5307;42.548;22.968;2022-08-24T09:50:23;7.18;;;4.40;;
10517;SDS011;5307;42.548;22.968;2022-08-24T09:56:11;7.53;;;3.65;;
10517;SDS011;5307;42.548;22.968;2022-08-24T09:58:51;8.05;;;4.60;;
10517;SDS011;5307;42.548;22.968;2022-08-24T10:01:30;6.10;;;4.22;;
10517;SDS011;5307;42.548;22.968;2022-08-24T10:04:08;7.97;;;4.30;;
10517;SDS011;5307;42.548;22.968;2022-08-24T10:06:47;6.40;;;4.05;;
10517;SDS011;5307;42.548;22.968;2022-08-24T10:12:31;5.72;;;4.47;;
10517;SDS011;5307;42.548;22.968;2022-08-24T10:15:07;7.70;;;3.90;;
10517;SDS011;5307;42.548;22.968;2022-08-24T10:17:39;5.28;;;3.95;;
10517;SDS011;5307;42.548;22.968;2022-08-24T10:20:19;5.40;;;4.07;;
10517;SDS011;5307;42.548;22.968;2022-08-24T10:25:50;6.28;;;3.67;;
10517;SDS011;5307;42.548;22.968;2022-08-24T10:28:34;5.32;;;3.83;;
10517;SDS011;5307;42.548;22.968;2022-08-24T10:31:16;4.15;;;3.05;;
10517;SDS011;5307;42.548;22.968;2022-08-24T10:33:57;8.07;;;4.15;;
10517;SDS011;5307;42.548;22.968;2022-08-24T10:39:48;7.90;;;3.65;;
10517;SDS011;5307;42.548;22.968;2022-08-24T10:42:39;8.85;;;4.55;;
10517;SDS011;5307;42.548;22.968;2022-08-24T10:45:41;6.93;;;4.00;;
10517;SDS011;5307;42.548;22.968;2022-08-24T10:48:42;6.70;;;3.70;;
10517;SDS011;5307;42.548;22.968;2022-08-24T10:51:33;6.65;;;4.40;;
10517;SDS011;5307;42.548;22.968;2022-08-24T10:54:09;5.53;;;4.03;;
10517;SDS011;5307;42.548;22.968;2022-08-24T10:56:39;6.00;;;4.63;;
10517;SDS011;5307;42.548;22.968;2022-08-24T10:59:19;7.68;;;4.70;;
10517;SDS011;5307;42.548;22.968;2022-08-24T11:02:00;8.02;;;4.13;;
10517;SDS011;5307;42.548;22.968;2022-08-24T11:04:30;6.30;;;4.07;;
10517;SDS011;5307;42.548;22.968;2022-08-24T11:07:04;6.70;;;4.20;;
10517;SDS011;5307;42.548;22.968;2022-08-24T11:09:45;4.63;;;3.92;;
10517;SDS011;5307;42.548;22.968;2022-08-24T11:12:17;7.07;;;4.38;;
10517;SDS011;5307;42.548;22.968;2022-08-24T11:14:51;6.85;;;4.30;;
10517;SDS011;5307;42.548;22.968;2022-08-24T11:17:19;7.82;;;4.53;;
10517;SDS011;5307;42.548;22.968;2022-08-24T11:20:03;6.95;;;4.50;;
10517;SDS011;5307;42.548;22.968;2022-08-24T11:37:38;8.00;;;4.60;;
10517;SDS011;5307;42.548;22.968;2022-08-24T11:40:11;5.97;;;4.50;;
10517;SDS011;5307;42.548;22.968;2022-08-24T11:45:40;6.65;;;4.68;;
10517;SDS011;5307;42.548;22.968;2022-08-24T11:48:15;6.70;;;4.15;;
10517;SDS011;5307;42.548;22.968;2022-08-24T11:50:51;10.88;;;4.57;;
10517;SDS011;5307;42.548;22.968;2022-08-24T11:53:29;6.55;;;4.75;;
10517;SDS011;5307;42.548;22.968;2022-08-24T11:56:04;8.55;;;4.65;;
10517;SDS011;5307;42.548;22.968;2022-08-24T11:58:44;8.00;;;4.97;;
10517;SDS011;5307;42.548;22.968;2022-08-24T12:01:19;7.65;;;4.72;;
10517;SDS011;5307;42.548;22.968;2022-08-24T12:06:53;5.68;;;5.07;;
10517;SDS011;5307;42.548;22.968;2022-08-24T12:09:34;11.65;;;5.00;;
10517;SDS011;5307;42.548;22.968;2022-08-24T12:12:11;6.13;;;5.53;;
10517;SDS011;5307;42.548;22.968;2022-08-24T12:14:46;9.27;;;5.10;;
10517;SDS011;5307;42.548;22.968;2022-08-24T12:17:20;12.27;;;5.38;;
10517;SDS011;5307;42.548;22.968;2022-08-24T12:19:51;9.52;;;5.22;;
10517;SDS011;5307;42.548;22.968;2022-08-24T12:22:24;5.75;;;4.82;;
10517;SDS011;5307;42.548;22.968;2022-08-24T12:24:56;8.95;;;5.35;;
10517;SDS011;5307;42.548;22.968;2022-08-24T12:27:27;7.10;;;4.43;;
10517;SDS011;5307;42.548;22.968;2022-08-24T12:29:58;10.80;;;5.20;;
10517;SDS011;5307;42.548;22.968;2022-08-24T12:32:29;11.43;;;5.10;;
10517;SDS011;5307;42.548;22.968;2022-08-24T12:35:04;12.48;;;5.40;;
10517;SDS011;5307;42.548;22.968;2022-08-24T12:37:35;11.35;;;5.40;;
10517;SDS011;5307;42.548;22.968;2022-08-24T12:40:10;9.07;;;5.53;;
10517;SDS011;5307;42.548;22.968;2022-08-24T12:42:48;10.98;;;5.43;;
10517;SDS011;5307;42.548;22.968;2022-08-24T12:45:17;10.02;;;5.05;;
10517;SDS011;5307;42.548;22.968;2022-08-24T12:47:47;8.55;;;4.90;;
10517;SDS011;5307;42.548;22.968;2022-08-24T12:50:19;10.27;;;5.47;;
10517;SDS011;5307;42.548;22.968;2022-08-24T12:56:01;7.05;;;4.97;;
10517;SDS011;5307;42.548;22.968;2022-08-24T12:58:50;10.95;;;5.22;;
10517;SDS011;5307;42.548;22.968;2022-08-24T13:01:22;8.70;;;5.47;;
10517;SDS011;5307;42.548;22.968;2022-08-24T13:04:01;8.38;;;5.38;;
10517;SDS011;5307;42.548;22.968;2022-08-24T13:06:39;7.32;;;4.93;;
10517;SDS011;5307;42.548;22.968;2022-08-24T13:09:13;11.70;;;5.95;;
10517;SDS011;5307;42.548;22.968;2022-08-24T13:11:52;6.93;;;5.13;;
10517;SDS011;5307;42.548;22.968;2022-08-24T13:14:21;10.70;;;5.03;;
10517;SDS011;5307;42.548;22.968;2022-08-24T13:19:38;8.48;;;5.13;;
10517;SDS011;5307;42.548;22.968;2022-08-24T13:28:35;9.15;;;5.22;;
10517;SDS011;5307;42.548;22.968;2022-08-24T13:31:16;9.30;;;5.50;;
10517;SDS011;5307;42.548;22.968;2022-08-24T13:33:52;10.68;;;4.75;;
10517;SDS011;5307;42.548;22.968;2022-08-24T13:36:35;11.68;;;4.57;;
10517;SDS011;5307;42.548;22.968;2022-08-24T13:39:11;6.70;;;5.13;;
10517;SDS011;5307;42.548;22.968;2022-08-24T13:42:02;10.10;;;4.93;;
10517;SDS011;5307;42.548;22.968;2022-08-24T13:44:55;12.38;;;5.88;;
10517;SDS011;5307;42.548;22.968;2022-08-24T13:47:30;14.27;;;6.10;;
10517;SDS011;5307;42.548;22.968;2022-08-24T13:50:11;14.18;;;5.28;;
10517;SDS011;5307;42.548;22.968;2022-08-24T13:52:57;12.18;;;5.85;;
10517;SDS011;5307;42.548;22.968;2022-08-24T13:55:41;14.40;;;6.65;;
10517;SDS011;5307;42.548;22.968;2022-08-24T13:58:13;8.27;;;5.78;;
10517;SDS011;5307;42.548;22.968;2022-08-24T14:00:53;9.75;;;5.57;;
10517;SDS011;5307;42.548;22.968;2022-08-24T14:03:38;20.75;;;6.07;;
10517;SDS011;5307;42.548;22.968;2022-08-24T14:06:19;10.63;;;5.25;;
10517;SDS011;5307;42.548;22.968;2022-08-24T14:08:59;15.73;;;6.43;;
10517;SDS011;5307;42.548;22.968;2022-08-24T14:11:45;14.32;;;6.20;;
10517;SDS011;5307;42.548;22.968;2022-08-24T14:14:34;9.57;;;5.80;;
10517;SDS011;5307;42.548;22.968;2022-08-24T14:17:23;8.73;;;5.88;;
10517;SDS011;5307;42.548;22.968;2022-08-24T14:20:17;8.07;;;5.57;;
10517;SDS011;5307;42.548;22.968;2022-08-24T14:22:58;13.63;;;6.40;;
10517;SDS011;5307;42.548;22.968;2022-08-24T14:25:32;13.13;;;6.68;;
10517;SDS011;5307;42.548;22.968;2022-08-24T14:31:16;16.80;;;6.22;;
10517;SDS011;5307;42.548;22.968;2022-08-24T14:33:49;14.30;;;5.97;;
10517;SDS011;5307;42.548;22.968;2022-08-24T14:36:28;10.15;;;5.10;;
10517;SDS011;5307;42.548;22.968;2022-08-24T14:39:09;12.55;;;4.55;;
10517;SDS011;5307;42.548;22.968;2022-08-24T14:41:51;13.48;;;6.97;;
10517;SDS011;5307;42.548;22.968;2022-08-24T14:44:24;11.70;;;5.82;;
10517;SDS011;5307;42.548;22.968;2022-08-24T14:47:03;13.27;;;5.72;;
10517;SDS011;5307;42.548;22.968;2022-08-24T14:49:42;16.80;;;6.07;;
10517;SDS011;5307;42.548;22.968;2022-08-24T14:52:35;8.75;;;5.40;;
10517;SDS011;5307;42.548;22.968;2022-08-24T14:55:11;12.15;;;6.32;;
10517;SDS011;5307;42.548;22.968;2022-08-24T14:57:55;18.63;;;5.90;;
10517;SDS011;5307;42.548;22.968;2022-08-24T15:00:33;15.68;;;6.43;;
10517;SDS011;5307;42.548;22.968;2022-08-24T15:03:23;17.48;;;5.80;;
10517;SDS011;5307;42.548;22.968;2022-08-24T15:06:18;11.82;;;4.93;;
10517;SDS011;5307;42.548;22.968;2022-08-24T15:08:49;15.07;;;5.15;;
10517;SDS011;5307;42.548;22.968;2022-08-24T15:11:19;16.88;;;5.88;;
10517;SDS011;5307;42.548;22.968;2022-08-24T15:13:52;11.48;;;5.00;;
10517;SDS011;5307;42.548;22.968;2022-08-24T15:16:23;14.57;;;5.88;;
10517;SDS011;5307;42.548;22.968;2022-08-24T15:18:56;10.52;;;5.35;;
10517;SDS011;5307;42.548;22.968;2022-08-24T15:21:33;11.68;;;5.53;;
10517;SDS011;5307;42.548;22.968;2022-08-24T15:24:14;15.70;;;6.10;;
10517;SDS011;5307;42.548;22.968;2022-08-24T15:27:00;14.20;;;5.82;;
10517;SDS011;5307;42.548;22.968;2022-08-24T15:29:35;14.77;;;6.28;;
10517;SDS011;5307;42.548;22.968;2022-08-24T15:32:14;13.48;;;6.30;;
10517;SDS011;5307;42.548;22.968;2022-08-24T15:34:42;17.40;;;5.95;;
10517;SDS011;5307;42.548;22.968;2022-08-24T15:37:15;9.55;;;4.35;;
10517;SDS011;5307;42.548;22.968;2022-08-24T15:39:50;16.20;;;6.20;;
10517;SDS011;5307;42.548;22.968;2022-08-24T15:42:17;11.10;;;6.10;;
10517;SDS011;5307;42.548;22.968;2022-08-24T15:44:46;10.27;;;5.93;;
10517;SDS011;5307;42.548;22.968;2022-08-24T15:47:17;12.57;;;6.10;;
10517;SDS011;5307;42.548;22.968;2022-08-24T15:49:50;14.32;;;5.88;;
10517;SDS011;5307;42.548;22.968;2022-08-24T15:52:37;11.55;;;6.45;;
10517;SDS011;5307;42.548;22.968;2022-08-24T15:55:08;12.85;;;6.25;;
10517;SDS011;5307;42.548;22.968;2022-08-24T15:57:44;12.63;;;6.68;;
10517;SDS011;5307;42.548;22.968;2022-08-24T16:00:12;11.05;;;5.53;;
10517;SDS011;5307;42.548;22.968;2022-08-24T16:05:46;18.13;;;6.45;;
10517;SDS011;5307;42.548;22.968;2022-08-24T16:08:16;22.90;;;7.68;;
10517;SDS011;5307;42.548;22.968;2022-08-24T16:10:44;12.50;;;5.47;;